Time;durP1;ratioP1;P1;durP2;ratioP2;P2;SDS_P1;SDS_P2;PMS_P1;PMS_P2;Temp;Humidity;BMP_temperature;BMP_pressure;BME280_temperature;BME280_humidity;BME280_pressure;Samples;Min_cycle;Max_cycle;Signal;HPM_P1;HPM_P2
2023/12/29 00:01:01;;;;;;;5.30;1.00;;;10.50;99.90;;;;;;7357440;32;20202;-56
2023/12/29 00:05:04;;;;;;;8.23;1.00;;;10.50;99.90;;;;;;7365451;32;20198;-56
2023/12/29 00:09:06;;;;;;;5.80;1.08;;;10.40;99.90;;;;;;7364055;32;20339;-57
2023/12/29 00:13:07;;;;;;;6.22;0.88;;;10.40;99.90;;;;;;7365078;32;21879;-56
2023/12/29 00:17:10;;;;;;;3.87;0.80;;;10.50;99.90;;;;;;7361160;32;20672;-56
2023/12/29 00:21:11;;;;;;;8.38;0.93;;;10.50;99.90;;;;;;7365563;32;20111;-55
2023/12/29 00:25:13;;;;;;;4.72;0.90;;;10.50;99.90;;;;;;7357751;32;20149;-56
2023/12/29 00:29:15;;;;;;;4.15;1.08;;;10.50;99.90;;;;;;7363509;32;20099;-56
2023/12/29 00:33:17;;;;;;;6.45;1.10;;;10.50;99.90;;;;;;7360160;32;20123;-58
2023/12/29 00:37:19;;;;;;;5.00;0.80;;;10.50;99.90;;;;;;7361440;32;20123;-56
2023/12/29 00:41:20;;;;;;;7.28;0.98;;;10.50;99.90;;;;;;7361585;32;20118;-55
2023/12/29 00:45:22;;;;;;;4.80;0.60;;;10.50;99.90;;;;;;7367206;32;20145;-56
2023/12/29 00:49:24;;;;;;;4.93;0.73;;;10.50;99.90;;;;;;7359070;32;20220;-56
2023/12/29 00:53:26;;;;;;;5.25;1.02;;;10.50;99.90;;;;;;7365961;32;20107;-56
2023/12/29 00:57:27;;;;;;;4.57;0.85;;;10.60;99.90;;;;;;7363618;32;20238;-57
2023/12/29 01:01:33;;;;;;;5.75;0.80;;;10.50;99.90;;;;;;7356262;32;20126;-56
2023/12/29 01:05:35;;;;;;;3.72;0.88;;;10.50;99.90;;;;;;7363675;32;20099;-56
2023/12/29 01:09:39;;;;;;;3.83;0.70;;;10.50;99.90;;;;;;7360931;32;20309;-57
2023/12/29 01:13:41;;;;;;;6.05;1.05;;;10.50;99.90;;;;;;7365745;32;20151;-56
2023/12/29 01:17:43;;;;;;;6.57;1.45;;;10.50;99.90;;;;;;7357261;32;20579;-55
2023/12/29 01:21:46;;;;;;;5.32;1.00;;;10.50;99.90;;;;;;7360262;32;20518;-55
2023/12/29 01:25:47;;;;;;;4.93;0.80;;;10.50;99.90;;;;;;7366560;32;20465;-57
2023/12/29 01:29:49;;;;;;;6.35;0.88;;;10.50;99.90;;;;;;7367403;32;20789;-55
2023/12/29 01:33:51;;;;;;;5.12;0.95;;;10.50;99.90;;;;;;7363699;32;20194;-56
2023/12/29 01:37:55;;;;;;;5.30;0.90;;;10.50;99.90;;;;;;7356290;32;20496;-55
2023/12/29 01:41:57;;;;;;;7.65;1.40;;;10.50;99.90;;;;;;7361396;32;20098;-56
2023/12/29 01:45:59;;;;;;;5.32;0.82;;;10.50;99.90;;;;;;7361725;32;20166;-57
2023/12/29 01:50:01;;;;;;;4.93;1.27;;;10.50;99.90;;;;;;7355839;32;20103;-56
2023/12/29 01:54:03;;;;;;;5.62;1.10;;;10.40;99.90;;;;;;7359633;32;20090;-56
2023/12/29 01:58:05;;;;;;;7.32;1.17;;;10.50;99.90;;;;;;7354729;32;20157;-55
2023/12/29 02:02:07;;;;;;;3.92;0.80;;;10.50;99.90;;;;;;7359305;32;20251;-57
2023/12/29 02:06:10;;;;;;;5.90;1.02;;;10.50;99.90;;;;;;7367049;32;20281;-56
2023/12/29 02:10:15;;;;;;;8.68;1.00;;;10.50;99.90;;;;;;7361035;32;20115;-56
2023/12/29 02:14:19;;;;;;;6.03;0.80;;;10.40;99.90;;;;;;7361299;32;20134;-56
2023/12/29 02:18:22;;;;;;;6.32;1.55;;;10.30;99.90;;;;;;7358446;32;20661;-56
2023/12/29 02:22:24;;;;;;;9.98;1.55;;;10.20;99.90;;;;;;7367275;32;20587;-55
2023/12/29 02:26:30;;;;;;;6.00;1.00;;;9.90;99.90;;;;;;7356005;32;20208;-55
2023/12/29 02:30:35;;;;;;;8.10;1.40;;;9.70;99.90;;;;;;7365122;32;20222;-56
2023/12/29 02:34:40;;;;;;;7.95;1.40;;;9.50;99.90;;;;;;7358924;32;20111;-57
2023/12/29 02:38:47;;;;;;;6.82;1.20;;;9.50;99.90;;;;;;7360187;32;20216;-56
2023/12/29 02:42:49;;;;;;;7.47;1.50;;;9.40;99.90;;;;;;7360561;32;20103;-55
2023/12/29 02:46:51;;;;;;;8.57;1.70;;;9.50;99.90;;;;;;7368912;32;20317;-57
2023/12/29 02:50:53;;;;;;;8.38;1.48;;;9.50;99.90;;;;;;7366523;32;20219;-55
2023/12/29 02:54:54;;;;;;;7.03;1.00;;;9.50;99.90;;;;;;7360199;32;20299;-55
2023/12/29 02:58:56;;;;;;;4.45;1.15;;;9.60;99.90;;;;;;7360140;32;20126;-56
2023/12/29 03:02:58;;;;;;;5.03;1.15;;;9.60;99.90;;;;;;7362453;32;20266;-57
2023/12/29 03:07:00;;;;;;;8.20;1.27;;;9.60;99.90;;;;;;7360014;32;20238;-55
2023/12/29 03:11:02;;;;;;;5.47;1.02;;;9.60;99.90;;;;;;7355292;32;20857;-55
2023/12/29 03:15:04;;;;;;;6.20;1.20;;;9.60;99.90;;;;;;7360063;32;20122;-56
2023/12/29 03:19:05;;;;;;;5.47;1.20;;;9.60;99.90;;;;;;7366654;32;20107;-56
2023/12/29 03:23:07;;;;;;;4.95;1.10;;;9.60;99.90;;;;;;7361997;32;20193;-57
2023/12/29 03:27:10;;;;;;;4.80;1.10;;;9.70;99.90;;;;;;7359175;32;20170;-56
2023/12/29 03:31:11;;;;;;;5.50;1.10;;;9.70;99.90;;;;;;7361513;32;20107;-56
2023/12/29 03:35:13;;;;;;;7.93;1.75;;;9.70;99.90;;;;;;7361819;32;20127;-56
2023/12/29 03:39:15;;;;;;;6.57;1.40;;;9.80;99.90;;;;;;7356307;32;20210;-56
2023/12/29 03:43:17;;;;;;;2.75;0.82;;;9.80;99.90;;;;;;7356190;32;20151;-55
2023/12/29 03:47:18;;;;;;;9.13;1.20;;;9.80;99.90;;;;;;7359812;32;20154;-55
2023/12/29 03:51:20;;;;;;;10.18;1.15;;;9.80;99.90;;;;;;7355265;32;20190;-58
2023/12/29 03:55:22;;;;;;;5.85;1.17;;;9.90;99.90;;;;;;7355288;32;20210;-56
2023/12/29 03:59:24;;;;;;;7.47;1.00;;;9.90;99.90;;;;;;7358074;32;20309;-55
2023/12/29 04:03:25;;;;;;;13.90;1.60;;;10.00;99.90;;;;;;7368608;32;20240;-56
2023/12/29 04:07:27;;;;;;;4.37;1.37;;;10.00;99.90;;;;;;7372529;32;20199;-55
2023/12/29 04:11:29;;;;;;;2.47;0.73;;;10.00;99.90;;;;;;7360532;32;20203;-56
2023/12/29 04:15:31;;;;;;;3.95;0.93;;;10.10;99.90;;;;;;7364634;32;20486;-56
2023/12/29 04:19:32;;;;;;;6.45;1.17;;;10.10;99.90;;;;;;7357687;32;20498;-56
2023/12/29 04:23:34;;;;;;;4.72;0.90;;;10.10;99.90;;;;;;7362339;32;20095;-56
2023/12/29 04:27:36;;;;;;;7.20;1.10;;;10.20;99.90;;;;;;7363527;32;20201;-56
2023/12/29 04:31:38;;;;;;;5.53;0.95;;;10.20;99.90;;;;;;7357262;32;20198;-56
2023/12/29 04:35:39;;;;;;;11.20;1.23;;;10.10;99.90;;;;;;7363948;32;20217;-57
2023/12/29 04:39:41;;;;;;;5.80;1.10;;;10.10;99.90;;;;;;7364896;32;20129;-56
2023/12/29 04:43:43;;;;;;;4.20;0.77;;;10.00;99.90;;;;;;7363518;32;20102;-54
2023/12/29 04:47:45;;;;;;;6.28;1.25;;;10.00;99.90;;;;;;7365685;32;20179;-56
2023/12/29 04:51:48;;;;;;;4.90;0.90;;;10.00;99.90;;;;;;7359205;32;20186;-55
2023/12/29 04:55:50;;;;;;;5.18;1.12;;;10.10;99.90;;;;;;7365158;32;20151;-56
2023/12/29 04:59:51;;;;;;;6.70;1.15;;;10.10;99.90;;;;;;7361050;32;20139;-55
2023/12/29 05:03:53;;;;;;;5.05;1.02;;;10.10;99.90;;;;;;7363552;32;20127;-56
2023/12/29 05:07:55;;;;;;;7.12;0.95;;;10.10;99.90;;;;;;7369106;32;20257;-57
2023/12/29 05:11:57;;;;;;;6.10;1.27;;;10.10;99.90;;;;;;7361128;32;20152;-56
2023/12/29 05:15:59;;;;;;;6.07;1.10;;;10.10;99.90;;;;;;7364716;32;20110;-56
2023/12/29 05:20:01;;;;;;;3.62;0.90;;;10.20;99.90;;;;;;7355674;32;20149;-56
2023/12/29 05:24:04;;;;;;;6.97;0.98;;;10.20;99.90;;;;;;7360961;32;20107;-55
2023/12/29 05:28:06;;;;;;;5.85;0.93;;;10.20;99.90;;;;;;7363365;32;20819;-55
2023/12/29 05:32:08;;;;;;;4.15;0.80;;;10.20;99.90;;;;;;7363085;32;20670;-55
2023/12/29 05:36:10;;;;;;;5.25;0.93;;;10.20;99.90;;;;;;7357370;32;20463;-55
2023/12/29 05:40:12;;;;;;;6.87;1.10;;;10.30;99.90;;;;;;7362642;32;20126;-55
2023/12/29 05:44:15;;;;;;;9.30;1.73;;;10.20;99.90;;;;;;7358640;32;20104;-55
2023/12/29 05:48:17;;;;;;;6.03;0.73;;;10.10;99.90;;;;;;7362619;32;20723;-56
2023/12/29 05:52:21;;;;;;;8.82;1.33;;;10.20;99.90;;;;;;7363810;32;20698;-56
2023/12/29 05:56:23;;;;;;;6.47;0.93;;;10.10;99.90;;;;;;7367535;32;20183;-56
2023/12/29 06:00:27;;;;;;;6.15;1.00;;;10.10;99.90;;;;;;7356752;32;20894;-56
2023/12/29 06:04:29;;;;;;;7.50;0.98;;;10.10;99.90;;;;;;7359925;32;20261;-56
2023/12/29 06:08:30;;;;;;;6.25;1.30;;;10.10;99.90;;;;;;7357391;32;20103;-56
2023/12/29 06:12:32;;;;;;;4.32;0.85;;;10.10;99.90;;;;;;7355431;32;20183;-55
2023/12/29 06:16:34;;;;;;;5.93;0.88;;;10.20;99.90;;;;;;7366782;32;20220;-56
2023/12/29 06:20:36;;;;;;;8.15;1.50;;;10.10;99.90;;;;;;7354982;32;20111;-55
2023/12/29 06:24:38;;;;;;;12.50;1.20;;;10.10;99.90;;;;;;7365658;32;20238;-57
2023/12/29 06:28:40;;;;;;;5.50;1.00;;;10.10;99.90;;;;;;7362457;32;20106;-56
2023/12/29 06:32:42;;;;;;;9.77;1.00;;;10.10;99.90;;;;;;7360854;32;20199;-57
2023/12/29 06:36:44;;;;;;;7.10;1.15;;;10.10;99.90;;;;;;7351246;32;22412;-58
2023/12/29 06:40:45;;;;;;;4.40;1.12;;;10.10;99.90;;;;;;7352287;32;20194;-57
2023/12/29 06:44:47;;;;;;;7.22;0.80;;;10.10;99.90;;;;;;7345602;32;21304;-57
2023/12/29 06:48:49;;;;;;;10.82;1.20;;;10.10;99.90;;;;;;7352376;32;20245;-56
2023/12/29 06:52:51;;;;;;;7.07;1.17;;;10.10;99.90;;;;;;7348791;32;20643;-57
2023/12/29 06:56:53;;;;;;;8.10;1.20;;;10.10;99.90;;;;;;7349984;32;20108;-56
2023/12/29 07:00:55;;;;;;;8.10;1.20;;;10.20;99.90;;;;;;7352785;32;20194;-58
2023/12/29 07:04:57;;;;;;;8.35;1.50;;;10.20;99.90;;;;;;7354076;32;20122;-57
2023/12/29 07:09:00;;;;;;;5.97;1.12;;;10.20;99.90;;;;;;7364299;32;20204;-57
2023/12/29 07:13:02;;;;;;;3.55;0.88;;;10.10;99.90;;;;;;7363171;32;20126;-58
2023/12/29 07:17:04;;;;;;;6.25;1.20;;;10.10;99.90;;;;;;7356614;32;20670;-58
2023/12/29 07:21:06;;;;;;;4.78;0.88;;;10.10;99.90;;;;;;7357265;32;20244;-58
2023/12/29 07:25:09;;;;;;;5.65;0.75;;;10.10;99.90;;;;;;7352749;32;20629;-56
2023/12/29 07:29:11;;;;;;;6.00;1.10;;;10.00;99.90;;;;;;7359499;32;20225;-58
2023/12/29 07:33:12;;;;;;;5.28;0.80;;;10.00;99.90;;;;;;7359722;32;20207;-58
2023/12/29 07:37:14;;;;;;;6.85;0.98;;;10.00;99.90;;;;;;7361400;32;20240;-57
2023/12/29 07:41:17;;;;;;;5.03;1.00;;;9.90;99.90;;;;;;7351397;32;20625;-59
2023/12/29 07:45:19;;;;;;;9.38;1.23;;;9.80;99.90;;;;;;7358578;32;20128;-58
2023/12/29 07:49:21;;;;;;;9.35;1.05;;;9.70;99.90;;;;;;7357740;32;20182;-57
2023/12/29 07:53:23;;;;;;;4.32;0.85;;;9.60;99.90;;;;;;7358674;32;20721;-58
2023/12/29 07:57:25;;;;;;;4.72;0.93;;;9.40;99.90;;;;;;7363915;32;20227;-57
2023/12/29 08:01:27;;;;;;;4.28;0.90;;;9.40;99.90;;;;;;7359035;32;20270;-58
2023/12/29 08:05:28;;;;;;;6.87;0.93;;;9.30;99.90;;;;;;7354234;32;20831;-57
2023/12/29 08:09:30;;;;;;;4.15;0.90;;;9.30;99.90;;;;;;7352894;32;20182;-58
2023/12/29 08:13:32;;;;;;;10.15;1.10;;;9.30;99.90;;;;;;7354806;32;20468;-58
2023/12/29 08:17:35;;;;;;;9.13;1.10;;;9.30;99.90;;;;;;7358341;32;20115;-57
2023/12/29 08:21:37;;;;;;;6.45;1.10;;;9.30;99.90;;;;;;7354915;32;20107;-57
2023/12/29 08:25:39;;;;;;;2.67;0.68;;;9.30;99.90;;;;;;7357548;32;20514;-57
2023/12/29 08:29:40;;;;;;;5.57;1.10;;;9.30;99.90;;;;;;7358230;32;20166;-57
2023/12/29 08:33:42;;;;;;;7.68;1.40;;;9.20;99.90;;;;;;7362236;32;20255;-57
2023/12/29 08:37:44;;;;;;;5.95;0.90;;;9.20;99.90;;;;;;7353255;32;20197;-57
2023/12/29 08:41:49;;;;;;;6.85;1.05;;;9.20;99.90;;;;;;7361688;32;20506;-56
2023/12/29 08:45:51;;;;;;;5.75;0.85;;;9.20;99.90;;;;;;7356296;32;20871;-58
2023/12/29 08:49:54;;;;;;;6.25;0.90;;;9.20;99.90;;;;;;7362546;32;20190;-57
2023/12/29 08:53:56;;;;;;;4.47;0.68;;;9.20;99.90;;;;;;7351996;32;20194;-57
2023/12/29 08:57:57;;;;;;;4.53;0.60;;;9.10;99.90;;;;;;7355520;32;20667;-57
2023/12/29 09:02:00;;;;;;;3.28;0.50;;;9.20;99.90;;;;;;7352382;32;20197;-58
2023/12/29 09:06:02;;;;;;;1.92;0.47;;;9.10;99.90;;;;;;7365907;32;20097;-58
2023/12/29 09:10:08;;;;;;;5.40;0.95;;;9.20;99.90;;;;;;7353267;32;20214;-57
2023/12/29 09:14:10;;;;;;;2.25;0.70;;;9.20;99.90;;;;;;7359450;32;20268;-56
2023/12/29 09:18:12;;;;;;;5.60;0.80;;;9.20;99.90;;;;;;7358817;32;20130;-56
2023/12/29 09:22:13;;;;;;;4.60;0.52;;;9.30;99.90;;;;;;7355976;32;20635;-56
2023/12/29 09:26:15;;;;;;;3.05;0.60;;;9.30;99.90;;;;;;7357971;32;20122;-56
2023/12/29 09:30:17;;;;;;;4.97;0.93;;;9.30;99.90;;;;;;7361852;32;20181;-58
2023/12/29 09:34:19;;;;;;;2.72;0.60;;;9.30;99.90;;;;;;7357546;32;20135;-57
2023/12/29 09:38:21;;;;;;;2.42;0.60;;;9.40;99.90;;;;;;7358151;32;20169;-57
2023/12/29 09:42:26;;;;;;;2.65;1.12;;;9.30;99.90;;;;;;7361728;32;20168;-56
2023/12/29 09:46:33;;;;;;;3.95;0.60;;;9.40;99.90;;;;;;7358794;32;20130;-56
2023/12/29 09:50:35;;;;;;;2.65;0.60;;;9.40;99.90;;;;;;7358968;32;20137;-56
2023/12/29 09:54:38;;;;;;;3.47;0.73;;;9.30;99.90;;;;;;7363233;32;20197;-57
2023/12/29 09:58:41;;;;;;;2.70;0.70;;;9.30;99.90;;;;;;7364810;32;20195;-56
2023/12/29 10:02:43;;;;;;;1.98;0.45;;;9.30;99.90;;;;;;7359409;32;20538;-56
2023/12/29 10:06:49;;;;;;;4.12;0.62;;;9.20;99.90;;;;;;7359015;32;20156;-56
2023/12/29 10:10:53;;;;;;;3.30;0.60;;;9.20;99.90;;;;;;7354016;32;20153;-58
2023/12/29 10:15:19;;;;;;;4.00;0.68;;;9.20;99.90;;;;;;7366226;32;20208;-56
2023/12/29 10:19:45;;;;;;;2.05;0.60;;;9.20;99.90;;;;;;7362113;32;20139;-57
2023/12/29 10:24:02;;;;;;;2.15;0.82;;;9.20;99.90;;;;;;7358065;32;20189;-57
2023/12/29 10:28:06;;;;;;;4.60;1.02;;;9.20;99.90;;;;;;7361518;32;20099;-56
2023/12/29 10:32:09;;;;;;;2.25;0.90;;;9.30;99.90;;;;;;7355606;32;20159;-57
2023/12/29 10:36:18;;;;;;;5.18;0.88;;;9.30;99.90;;;;;;7361567;32;20213;-57
2023/12/29 10:40:21;;;;;;;5.10;1.08;;;9.30;99.90;;;;;;7359513;32;20178;-56
2023/12/29 10:44:23;;;;;;;5.15;1.00;;;9.30;99.90;;;;;;7360566;32;20134;-56
2023/12/29 10:48:24;;;;;;;3.67;0.80;;;9.30;99.90;;;;;;7364624;32;20764;-55
2023/12/29 10:52:26;;;;;;;3.95;0.60;;;9.40;99.90;;;;;;7367782;32;20226;-58
2023/12/29 10:56:28;;;;;;;6.82;0.85;;;9.50;99.90;;;;;;7358224;32;20194;-59
2023/12/29 11:00:30;;;;;;;2.83;0.70;;;9.60;99.90;;;;;;7361360;32;20152;-58
2023/12/29 11:04:32;;;;;;;3.20;0.80;;;9.50;99.90;;;;;;7363057;32;20182;-57
2023/12/29 11:08:36;;;;;;;5.93;1.00;;;9.60;99.90;;;;;;7370131;32;20647;-56
2023/12/29 11:12:38;;;;;;;7.35;1.15;;;9.60;99.90;;;;;;7361168;32;20251;-58
2023/12/29 11:16:42;;;;;;;6.70;1.08;;;9.70;99.90;;;;;;7369861;32;20425;-58
2023/12/29 11:20:46;;;;;;;4.05;0.82;;;9.70;99.90;;;;;;7378605;32;20125;-56
2023/12/29 11:24:48;;;;;;;3.78;1.25;;;9.80;99.90;;;;;;7368652;32;20107;-57
2023/12/29 11:28:51;;;;;;;5.28;1.00;;;9.90;99.90;;;;;;7370914;32;20169;-57
2023/12/29 11:32:59;;;;;;;5.93;0.85;;;10.00;99.90;;;;;;7359819;32;20145;-57
2023/12/29 11:37:33;;;;;;;4.55;0.85;;;10.00;99.90;;;;;;7362099;32;20099;-57
2023/12/29 11:41:56;;;;;;;4.47;1.40;;;10.10;99.90;;;;;;7369608;32;20135;-57
2023/12/29 11:45:58;;;;;;;7.40;1.08;;;10.10;99.90;;;;;;7364021;32;20330;-57
2023/12/29 11:50:02;;;;;;;8.65;1.55;;;10.10;99.90;;;;;;7358152;32;20177;-56
2023/12/29 11:54:05;;;;;;;8.43;1.17;;;10.10;99.90;;;;;;7362960;32;20125;-56
2023/12/29 11:58:28;;;;;;;3.60;0.70;;;10.00;99.90;;;;;;7364945;32;20182;-56
2023/12/29 12:02:30;;;;;;;3.15;0.93;;;10.00;99.90;;;;;;7355900;32;20140;-57
2023/12/29 12:06:41;;;;;;;2.60;1.00;;;9.90;99.90;;;;;;7369311;32;20493;-56
2023/12/29 12:10:43;;;;;;;5.82;1.12;;;9.90;99.90;;;;;;7370002;32;20594;-56
2023/12/29 12:14:50;;;;;;;4.43;1.00;;;10.00;99.90;;;;;;7364468;32;20752;-56
2023/12/29 12:18:52;;;;;;;3.17;0.90;;;10.00;99.90;;;;;;7359028;32;20158;-57
2023/12/29 12:23:02;;;;;;;6.30;1.23;;;9.90;99.90;;;;;;7358677;32;20219;-55
2023/12/29 12:27:10;;;;;;;3.33;0.62;;;9.90;99.90;;;;;;7363444;32;20111;-55
2023/12/29 12:31:13;;;;;;;2.45;0.70;;;9.80;99.90;;;;;;7364793;32;20467;-56
2023/12/29 12:35:18;;;;;;;1.15;0.50;;;9.60;99.90;;;;;;7359664;32;20532;-56
2023/12/29 12:39:23;;;;;;;1.95;0.60;;;9.50;99.90;;;;;;7361189;32;20253;-56
2023/12/29 12:43:27;;;;;;;2.30;0.75;;;9.50;99.90;;;;;;7361566;32;20122;-56
2023/12/29 12:47:35;;;;;;;2.78;0.62;;;9.40;99.90;;;;;;7351060;32;20115;-57
2023/12/29 12:51:37;;;;;;;4.87;1.05;;;9.50;99.90;;;;;;7358321;32;20248;-57
2023/12/29 12:55:41;;;;;;;3.75;1.12;;;9.60;99.90;;;;;;7355736;32;20575;-55
2023/12/29 12:59:43;;;;;;;2.87;1.00;;;9.60;99.90;;;;;;7363543;32;20718;-55
2023/12/29 13:03:45;;;;;;;3.62;0.73;;;9.70;99.90;;;;;;7355264;32;20111;-56
2023/12/29 13:07:47;;;;;;;3.80;0.70;;;9.80;99.90;;;;;;7357366;32;20885;-56
2023/12/29 13:11:49;;;;;;;3.08;0.62;;;9.80;99.90;;;;;;7357430;32;20616;-56
2023/12/29 13:15:51;;;;;;;2.53;0.75;;;9.80;99.90;;;;;;7362282;32;20111;-56
2023/12/29 13:20:00;;;;;;;3.00;0.77;;;9.70;99.90;;;;;;7363950;32;20207;-56
2023/12/29 13:24:05;;;;;;;2.87;0.60;;;9.70;99.90;;;;;;7361389;32;20599;-56
2023/12/29 13:28:08;;;;;;;3.83;1.10;;;9.70;99.90;;;;;;7359621;32;20115;-56
2023/12/29 13:32:16;;;;;;;5.15;1.12;;;9.70;99.90;;;;;;7355510;32;20107;-56
2023/12/29 13:36:21;;;;;;;3.28;0.88;;;9.70;99.90;;;;;;7355415;32;20095;-57
2023/12/29 13:40:35;;;;;;;5.00;0.95;;;9.70;99.90;;;;;;7363989;32;20561;-56
2023/12/29 13:44:39;;;;;;;2.60;0.60;;;9.80;99.90;;;;;;7360875;32;20156;-63
2023/12/29 13:48:42;;;;;;;3.25;0.85;;;10.10;99.90;;;;;;7363772;32;20131;-56
2023/12/29 13:52:44;;;;;;;4.57;0.95;;;10.20;99.90;;;;;;7356898;32;20218;-56
2023/12/29 13:56:53;;;;;;;2.15;0.60;;;10.10;99.90;;;;;;7360330;32;20674;-56
2023/12/29 14:00:59;;;;;;;4.95;0.80;;;10.00;99.90;;;;;;7360313;32;20145;-56
2023/12/29 14:05:16;;;;;;;4.40;1.12;;;10.00;99.90;;;;;;7358714;32;20322;-57
2023/12/29 14:09:18;;;;;;;;;;;10.00;99.90;;;;;;7362565;32;20103;-56
2023/12/29 14:13:20;;;;;;;5.55;0.80;;;10.00;99.90;;;;;;7357219;32;20660;-57
2023/12/29 14:17:22;;;;;;;3.62;0.85;;;10.00;99.90;;;;;;7354137;32;20209;-56
2023/12/29 14:21:28;;;;;;;4.62;1.10;;;10.10;99.90;;;;;;7362796;32;20611;-55
2023/12/29 14:25:34;;;;;;;5.00;1.00;;;10.10;99.90;;;;;;7360958;32;20247;-56
2023/12/29 14:29:41;;;;;;;2.85;0.80;;;10.00;99.90;;;;;;7359052;32;20118;-57
2023/12/29 14:33:43;;;;;;;2.97;0.70;;;10.00;99.90;;;;;;7360798;32;20098;-56
2023/12/29 14:37:45;;;;;;;2.75;0.62;;;9.80;99.90;;;;;;7362150;32;20224;-56
2023/12/29 14:41:48;;;;;;;1.92;0.62;;;9.70;99.90;;;;;;7345698;32;20198;-56
2023/12/29 14:45:50;;;;;;;4.80;0.65;;;9.60;99.90;;;;;;7354967;32;20190;-57
2023/12/29 14:49:52;;;;;;;2.75;0.50;;;9.60;99.90;;;;;;7354229;32;20189;-57
2023/12/29 14:53:54;;;;;;;5.60;0.60;;;9.50;99.90;;;;;;7351521;32;20178;-56
2023/12/29 14:57:55;;;;;;;2.90;0.57;;;9.40;99.90;;;;;;7360434;32;20217;-57
2023/12/29 15:01:57;;;;;;;1.10;0.40;;;9.40;99.90;;;;;;7358420;32;20296;-56
2023/12/29 15:05:59;;;;;;;1.98;0.50;;;9.30;99.90;;;;;;7355741;32;20785;-57
2023/12/29 15:10:01;;;;;;;1.27;0.43;;;9.30;99.90;;;;;;7357724;32;20312;-56
2023/12/29 15:14:03;;;;;;;1.23;0.40;;;9.20;99.90;;;;;;7358353;32;20729;-57
2023/12/29 15:18:05;;;;;;;0.95;0.22;;;9.10;99.90;;;;;;7356584;32;20099;-56
2023/12/29 15:22:07;;;;;;;3.72;0.43;;;9.10;99.90;;;;;;7350402;32;20196;-57
2023/12/29 15:26:09;;;;;;;0.60;0.30;;;9.00;99.90;;;;;;7353008;32;20148;-57
2023/12/29 15:30:11;;;;;;;0.52;0.30;;;9.10;99.90;;;;;;7356104;32;20887;-57
2023/12/29 15:34:13;;;;;;;1.73;0.60;;;9.10;99.90;;;;;;7354603;32;20346;-56
2023/12/29 15:38:15;;;;;;;2.10;0.73;;;9.10;99.90;;;;;;7356590;32;20190;-56
2023/12/29 15:42:17;;;;;;;1.90;0.50;;;9.10;99.90;;;;;;7354683;32;20761;-57
2023/12/29 15:46:22;;;;;;;1.90;0.60;;;9.10;99.90;;;;;;7349061;32;20611;-56
2023/12/29 15:50:24;;;;;;;1.55;0.50;;;9.20;99.90;;;;;;7359118;32;20143;-57
2023/12/29 15:54:26;;;;;;;3.70;1.00;;;9.30;99.90;;;;;;7357018;32;20632;-56
2023/12/29 15:58:28;;;;;;;3.15;0.60;;;9.30;99.90;;;;;;7350538;32;20156;-57
2023/12/29 16:02:29;;;;;;;1.70;0.60;;;9.40;99.90;;;;;;7356446;32;20279;-55
2023/12/29 16:06:31;;;;;;;4.10;0.70;;;9.50;99.90;;;;;;7362062;32;20469;-56
2023/12/29 16:10:33;;;;;;;2.53;0.55;;;9.50;99.90;;;;;;7356268;32;20594;-56
2023/12/29 16:14:36;;;;;;;1.20;0.47;;;9.50;99.90;;;;;;7360262;32;20554;-57
2023/12/29 16:18:39;;;;;;;1.77;0.52;;;9.50;99.90;;;;;;7365636;32;20223;-56
2023/12/29 16:22:41;;;;;;;3.05;0.70;;;9.40;99.90;;;;;;7359400;32;20111;-56
2023/12/29 16:26:43;;;;;;;2.80;0.50;;;9.50;99.90;;;;;;7362052;32;20221;-56
2023/12/29 16:30:49;;;;;;;2.45;0.80;;;9.50;99.90;;;;;;7357005;32;20095;-57
2023/12/29 16:34:51;;;;;;;3.12;0.68;;;9.50;99.90;;;;;;7352943;32;20593;-57
2023/12/29 16:38:53;;;;;;;1.80;0.90;;;9.50;99.90;;;;;;7355797;32;20906;-56
2023/12/29 16:42:54;;;;;;;1.52;0.75;;;9.40;99.90;;;;;;7366851;32;20138;-55
2023/12/29 16:46:56;;;;;;;1.85;1.08;;;9.50;99.90;;;;;;7367239;32;20111;-64
2023/12/29 16:50:58;;;;;;;1.80;0.77;;;9.70;99.90;;;;;;7360829;32;20127;-58
2023/12/29 16:54:59;;;;;;;2.25;0.70;;;9.50;99.90;;;;;;7358211;32;20288;-56
2023/12/29 16:59:02;;;;;;;1.70;1.00;;;9.50;99.90;;;;;;7358871;32;20249;-56
2023/12/29 17:03:04;;;;;;;4.30;1.15;;;9.50;99.90;;;;;;7350126;32;20111;-55
2023/12/29 17:07:08;;;;;;;4.32;1.30;;;9.40;99.90;;;;;;7358706;32;20285;-55
2023/12/29 17:11:10;;;;;;;2.70;1.42;;;9.50;99.90;;;;;;7349959;32;20253;-56
2023/12/29 17:15:12;;;;;;;3.47;1.50;;;9.50;99.90;;;;;;7355109;32;20215;-55
2023/12/29 17:19:13;;;;;;;3.45;1.45;;;9.40;99.90;;;;;;7361204;32;20171;-56
2023/12/29 17:23:15;;;;;;;3.58;1.87;;;9.40;99.90;;;;;;7350279;32;20437;-56
2023/12/29 17:27:17;;;;;;;2.90;1.00;;;9.40;99.90;;;;;;7349027;32;20683;-56
2023/12/29 17:31:19;;;;;;;6.00;1.10;;;9.40;99.90;;;;;;7347692;32;20210;-58
2023/12/29 17:35:23;;;;;;;5.35;1.70;;;9.50;99.90;;;;;;7350025;32;20279;-56
2023/12/29 17:39:25;;;;;;;4.82;1.60;;;9.50;99.90;;;;;;7348129;32;20122;-56
2023/12/29 17:43:26;;;;;;;4.60;1.67;;;9.50;99.90;;;;;;7360254;32;20186;-56
2023/12/29 17:47:28;;;;;;;3.35;1.00;;;9.50;99.90;;;;;;7363086;32;20255;-55
2023/12/29 17:51:30;;;;;;;3.30;0.88;;;9.50;99.90;;;;;;7360078;32;20262;-54
2023/12/29 17:55:32;;;;;;;2.45;0.82;;;9.50;99.90;;;;;;7364524;32;20191;-55
2023/12/29 17:59:34;;;;;;;2.95;1.02;;;9.50;99.90;;;;;;7354300;32;20197;-56
2023/12/29 18:03:36;;;;;;;4.00;1.10;;;9.50;99.90;;;;;;7367195;32;20099;-55
2023/12/29 18:07:38;;;;;;;5.12;1.00;;;9.50;99.90;;;;;;7362284;32;20218;-56
2023/12/29 18:11:42;;;;;;;4.40;1.20;;;9.50;99.90;;;;;;7356711;32;20186;-56
2023/12/29 18:15:44;;;;;;;5.00;1.08;;;9.40;99.90;;;;;;7355134;32;20360;-54
2023/12/29 18:19:45;;;;;;;4.35;1.40;;;9.40;99.90;;;;;;7365949;32;20099;-56
2023/12/29 18:23:47;;;;;;;7.07;1.00;;;9.50;99.90;;;;;;7355408;32;20115;-55
2023/12/29 18:27:49;;;;;;;3.95;0.95;;;9.50;99.90;;;;;;7357740;32;20155;-56
2023/12/29 18:31:51;;;;;;;5.72;1.10;;;9.50;99.90;;;;;;7363113;32;20877;-56
2023/12/29 18:36:13;;;;;;;4.05;1.25;;;9.50;99.90;;;;;;7366724;32;20099;-56
2023/12/29 18:40:15;;;;;;;6.93;1.10;;;9.50;99.90;;;;;;7347533;32;20572;-56
2023/12/29 18:44:17;;;;;;;5.00;1.20;;;9.50;99.90;;;;;;7356625;32;21033;-55
2023/12/29 18:48:19;;;;;;;4.85;1.08;;;9.50;99.90;;;;;;7353021;32;20698;-56
2023/12/29 18:52:23;;;;;;;6.30;2.08;;;9.50;99.90;;;;;;7355738;32;20250;-56
2023/12/29 18:56:25;;;;;;;4.22;1.35;;;9.50;99.90;;;;;;7357175;32;20401;-56
2023/12/29 19:00:27;;;;;;;6.90;1.45;;;9.50;99.90;;;;;;7356827;32;20194;-57
2023/12/29 19:04:29;;;;;;;8.75;1.80;;;9.50;99.90;;;;;;7363335;32;20241;-56
2023/12/29 19:08:31;;;;;;;7.47;1.52;;;9.60;99.90;;;;;;7362223;32;20209;-56
2023/12/29 19:12:33;;;;;;;5.68;1.50;;;9.60;99.90;;;;;;7363389;32;20226;-56
2023/12/29 19:16:35;;;;;;;4.43;1.00;;;9.60;99.90;;;;;;7356627;32;20154;-57
2023/12/29 19:20:37;;;;;;;5.22;1.00;;;9.60;99.90;;;;;;7357616;32;20150;-56
2023/12/29 19:24:42;;;;;;;5.12;1.10;;;9.70;99.90;;;;;;7360288;32;20125;-56
2023/12/29 19:28:44;;;;;;;4.20;1.30;;;9.70;99.90;;;;;;7365046;32;20197;-56
2023/12/29 19:32:45;;;;;;;4.62;1.05;;;9.60;99.90;;;;;;7355190;32;20178;-55
2023/12/29 19:36:48;;;;;;;7.65;1.37;;;9.60;99.90;;;;;;7352923;32;20107;-57
2023/12/29 19:40:51;;;;;;;9.25;1.33;;;9.50;99.90;;;;;;7366245;32;20125;-57
2023/12/29 19:44:53;;;;;;;6.10;0.95;;;9.40;99.90;;;;;;7369393;32;20108;-57
2023/12/29 19:49:07;;;;;;;4.75;0.93;;;9.60;99.90;;;;;;7370046;32;20099;-57
2023/12/29 19:53:08;;;;;;;5.53;1.10;;;9.70;99.90;;;;;;7371430;32;20485;-57
2023/12/29 19:57:11;;;;;;;6.65;2.00;;;9.50;99.90;;;;;;7366286;32;20584;-57
2023/12/29 20:01:12;;;;;;;6.53;1.20;;;9.50;99.90;;;;;;7364943;32;20234;-57
2023/12/29 20:05:14;;;;;;;5.37;1.00;;;9.40;99.90;;;;;;7361431;32;20126;-56
2023/12/29 20:09:16;;;;;;;7.95;1.00;;;9.30;99.90;;;;;;7364660;32;20220;-56
2023/12/29 20:13:18;;;;;;;5.37;1.10;;;9.30;99.90;;;;;;7372736;32;20680;-56
2023/12/29 20:17:20;;;;;;;3.65;0.77;;;9.30;99.90;;;;;;7368146;32;20589;-58
2023/12/29 20:21:23;;;;;;;6.00;1.40;;;9.30;99.90;;;;;;7365635;32;20581;-57
2023/12/29 20:25:24;;;;;;;4.65;0.85;;;9.20;99.90;;;;;;7362470;32;20103;-56
2023/12/29 20:29:26;;;;;;;4.80;1.00;;;9.30;99.90;;;;;;7363867;32;20174;-55
2023/12/29 20:33:28;;;;;;;6.53;1.25;;;9.30;99.90;;;;;;7371558;32;20769;-57
2023/12/29 20:37:30;;;;;;;9.00;1.33;;;9.40;99.90;;;;;;7368372;32;20260;-58
2023/12/29 20:41:32;;;;;;;5.10;0.93;;;9.30;99.90;;;;;;7362124;32;20253;-56
2023/12/29 20:45:33;;;;;;;7.78;1.45;;;9.30;99.90;;;;;;7362420;32;20529;-57
2023/12/29 20:49:35;;;;;;;6.40;1.20;;;9.40;99.90;;;;;;7366003;32;20107;-58
2023/12/29 20:53:37;;;;;;;9.02;1.60;;;9.40;99.90;;;;;;7366346;32;20606;-57
2023/12/29 20:57:39;;;;;;;7.28;1.20;;;9.30;99.90;;;;;;7371897;32;20163;-57
2023/12/29 21:01:41;;;;;;;4.32;1.30;;;9.30;99.90;;;;;;7372734;32;20133;-57
2023/12/29 21:05:43;;;;;;;8.60;1.85;;;9.30;99.90;;;;;;7363361;32;20521;-57
2023/12/29 21:09:48;;;;;;;9.23;1.12;;;9.30;99.90;;;;;;7366303;32;20674;-57
2023/12/29 21:13:50;;;;;;;8.45;1.27;;;9.20;99.90;;;;;;7369984;32;20110;-58